SBSV/SSA METAR and TAF weather

Enter ICAO airport designator
Station Type Date Time Source
SBSV METAR 2020/02/28 08:00 UTC NOAA

SBSV 280800Z 02003KT 9999 SCT020 26/23 Q1012


Station Type Date Time Source
SBSV Decoded METAR 2020/02/28 08:00 UTC NOAA

Salvador Aeroporto , Brazil (SBSV) 12-54S 038-20W 13M
Feb 28, 2020 - 03:00 AM EST / 2020.02.28 0800 UTC
Wind: from the NNE (020 degrees) at 3 MPH (3 KT):0
Visibility: greater than 7 mile(s):0
Sky conditions: partly cloudy
Temperature: 78 F (26 C)
Dew Point: 73 F (23 C)
Relative Humidity: 83%
Pressure (altimeter): 29.88 in. Hg (1012 hPa)
ob: SBSV 280800Z 02003KT 9999 SCT020 26/23 Q1012
cycle: 8

Station Type Date Time Source
SBSV TAF 2020/02/28 06:09 UTC NOAA

TAF SBSV 280400Z 2806/2906 10009KT 9999 SCT020 TN27/2808Z TX31/2817Z
RMK PES

Example: see airport list